sensor_id;sensor_type;location;lat;lon;timestamp;pressure;altitude;pressure_sealevel;temperature
75273;BMP280;63869;52.344;16.928;2022-12-18T00:02:01;102388.00;;;-0.08
75273;BMP280;63869;52.344;16.928;2022-12-18T00:04:27;102392.69;;;-0.05
75273;BMP280;63869;52.344;16.928;2022-12-18T00:06:53;102398.22;;;-0.07
75273;BMP280;63869;52.344;16.928;2022-12-18T00:09:18;102395.41;;;-0.10
75273;BMP280;63869;52.344;16.928;2022-12-18T00:11:44;102398.59;;;-0.13
75273;BMP280;63869;52.344;16.928;2022-12-18T00:14:10;102375.53;;;-0.21
75273;BMP280;63869;52.344;16.928;2022-12-18T00:16:36;102388.19;;;-0.23
75273;BMP280;63869;52.344;16.928;2022-12-18T00:19:03;102394.22;;;-0.23
75273;BMP280;63869;52.344;16.928;2022-12-18T00:21:29;102411.56;;;-0.22
75273;BMP280;63869;52.344;16.928;2022-12-18T00:23:55;102407.38;;;-0.23
75273;BMP280;63869;52.344;16.928;2022-12-18T00:26:26;102402.47;;;-0.29
75273;BMP280;63869;52.344;16.928;2022-12-18T00:28:52;102410.84;;;-0.33
75273;BMP280;63869;52.344;16.928;2022-12-18T00:31:20;102408.28;;;-0.38
75273;BMP280;63869;52.344;16.928;2022-12-18T00:33:46;102412.00;;;-0.39
75273;BMP280;63869;52.344;16.928;2022-12-18T00:36:20;102416.25;;;-0.43
75273;BMP280;63869;52.344;16.928;2022-12-18T00:38:46;102422.06;;;-0.46
75273;BMP280;63869;52.344;16.928;2022-12-18T00:41:13;102424.72;;;-0.51
75273;BMP280;63869;52.344;16.928;2022-12-18T00:43:39;102431.53;;;-0.50
75273;BMP280;63869;52.344;16.928;2022-12-18T00:46:05;102433.44;;;-0.55
75273;BMP280;63869;52.344;16.928;2022-12-18T00:48:30;102429.81;;;-0.60
75273;BMP280;63869;52.344;16.928;2022-12-18T00:50:56;102450.53;;;-0.58
75273;BMP280;63869;52.344;16.928;2022-12-18T00:53:21;102448.47;;;-0.61
75273;BMP280;63869;52.344;16.928;2022-12-18T00:55:47;102426.53;;;-0.75
75273;BMP280;63869;52.344;16.928;2022-12-18T00:58:14;102443.75;;;-0.64
75273;BMP280;63869;52.344;16.928;2022-12-18T01:00:40;102445.38;;;-0.68
75273;BMP280;63869;52.344;16.928;2022-12-18T01:03:05;102448.84;;;-0.73
75273;BMP280;63869;52.344;16.928;2022-12-18T01:05:31;102454.38;;;-0.79
75273;BMP280;63869;52.344;16.928;2022-12-18T01:07:57;102471.97;;;-0.75
75273;BMP280;63869;52.344;16.928;2022-12-18T01:10:23;102470.97;;;-0.79
75273;BMP280;63869;52.344;16.928;2022-12-18T01:12:49;102461.81;;;-0.86
75273;BMP280;63869;52.344;16.928;2022-12-18T01:15:16;102472.81;;;-0.84
75273;BMP280;63869;52.344;16.928;2022-12-18T01:17:41;102480.69;;;-0.84
75273;BMP280;63869;52.344;16.928;2022-12-18T01:20:08;102473.94;;;-0.91
75273;BMP280;63869;52.344;16.928;2022-12-18T01:22:34;102479.41;;;-0.87
75273;BMP280;63869;52.344;16.928;2022-12-18T01:25:00;102484.94;;;-0.88
75273;BMP280;63869;52.344;16.928;2022-12-18T01:27:25;102480.78;;;-0.95
75273;BMP280;63869;52.344;16.928;2022-12-18T01:29:51;102488.66;;;-0.95
75273;BMP280;63869;52.344;16.928;2022-12-18T01:32:16;102482.88;;;-0.97
75273;BMP280;63869;52.344;16.928;2022-12-18T01:34:41;102487.91;;;-1.00
75273;BMP280;63869;52.344;16.928;2022-12-18T01:37:07;102482.38;;;-0.99
75273;BMP280;63869;52.344;16.928;2022-12-18T01:39:32;102479.25;;;-1.01
75273;BMP280;63869;52.344;16.928;2022-12-18T01:41:59;102474.56;;;-1.04
75273;BMP280;63869;52.344;16.928;2022-12-18T01:44:59;102485.84;;;-1.03
75273;BMP280;63869;52.344;16.928;2022-12-18T01:49:54;102498.72;;;-1.07
75273;BMP280;63869;52.344;16.928;2022-12-18T01:52:21;102491.41;;;-1.10
75273;BMP280;63869;52.344;16.928;2022-12-18T01:54:48;102493.25;;;-1.15
75273;BMP280;63869;52.344;16.928;2022-12-18T01:57:15;102495.34;;;-1.12
75273;BMP280;63869;52.344;16.928;2022-12-18T01:59:41;102486.72;;;-1.18
75273;BMP280;63869;52.344;16.928;2022-12-18T02:02:07;102495.69;;;-1.24
75273;BMP280;63869;52.344;16.928;2022-12-18T02:04:33;102492.78;;;-1.23
75273;BMP280;63869;52.344;16.928;2022-12-18T02:07:14;102502.78;;;-1.25
75273;BMP280;63869;52.344;16.928;2022-12-18T02:09:58;102481.34;;;-1.42
75273;BMP280;63869;52.344;16.928;2022-12-18T02:12:31;102516.69;;;-1.29
75273;BMP280;63869;52.344;16.928;2022-12-18T02:15:05;102520.09;;;-1.24
75273;BMP280;63869;52.344;16.928;2022-12-18T02:17:54;102519.56;;;-1.26
75273;BMP280;63869;52.344;16.928;2022-12-18T02:20:43;102487.13;;;-1.50
75273;BMP280;63869;52.344;16.928;2022-12-18T02:29:21;102518.00;;;-1.32
75273;BMP280;63869;52.344;16.928;2022-12-18T02:31:51;102525.63;;;-1.35
75273;BMP280;63869;52.344;16.928;2022-12-18T02:34:18;102518.28;;;-1.33
75273;BMP280;63869;52.344;16.928;2022-12-18T02:36:46;102529.28;;;-1.31
75273;BMP280;63869;52.344;16.928;2022-12-18T02:39:13;102496.03;;;-1.46
75273;BMP280;63869;52.344;16.928;2022-12-18T02:41:40;102522.72;;;-1.29
75273;BMP280;63869;52.344;16.928;2022-12-18T02:44:11;102500.47;;;-1.46
75273;BMP280;63869;52.344;16.928;2022-12-18T02:46:39;102484.03;;;-1.57
75273;BMP280;63869;52.344;16.928;2022-12-18T02:49:21;102526.66;;;-1.31
75273;BMP280;63869;52.344;16.928;2022-12-18T02:52:01;102521.69;;;-1.38
75273;BMP280;63869;52.344;16.928;2022-12-18T02:57:05;102514.66;;;-1.48
75273;BMP280;63869;52.344;16.928;2022-12-18T02:59:41;102521.97;;;-1.39
75273;BMP280;63869;52.344;16.928;2022-12-18T03:02:35;102519.38;;;-1.50
75273;BMP280;63869;52.344;16.928;2022-12-18T03:05:13;102516.25;;;-1.52
75273;BMP280;63869;52.344;16.928;2022-12-18T03:07:45;102523.31;;;-1.47
75273;BMP280;63869;52.344;16.928;2022-12-18T03:10:13;102527.22;;;-1.39
75273;BMP280;63869;52.344;16.928;2022-12-18T03:12:45;102531.19;;;-1.47
75273;BMP280;63869;52.344;16.928;2022-12-18T03:15:16;102539.28;;;-1.38
75273;BMP280;63869;52.344;16.928;2022-12-18T03:17:46;102532.19;;;-1.43
75273;BMP280;63869;52.344;16.928;2022-12-18T03:20:17;102534.59;;;-1.41
75273;BMP280;63869;52.344;16.928;2022-12-18T03:22:47;102542.69;;;-1.38
75273;BMP280;63869;52.344;16.928;2022-12-18T03:25:15;102535.59;;;-1.42
75273;BMP280;63869;52.344;16.928;2022-12-18T03:27:46;102542.69;;;-1.33
75273;BMP280;63869;52.344;16.928;2022-12-18T03:30:14;102549.22;;;-1.30
75273;BMP280;63869;52.344;16.928;2022-12-18T03:32:44;102538.75;;;-1.35
75273;BMP280;63869;52.344;16.928;2022-12-18T03:35:14;102545.03;;;-1.31
75273;BMP280;63869;52.344;16.928;2022-12-18T03:37:44;102551.84;;;-1.25
75273;BMP280;63869;52.344;16.928;2022-12-18T03:40:10;102561.78;;;-1.22
75273;BMP280;63869;52.344;16.928;2022-12-18T03:42:46;102557.06;;;-1.20
75273;BMP280;63869;52.344;16.928;2022-12-18T03:45:20;102556.00;;;-1.19
75273;BMP280;63869;52.344;16.928;2022-12-18T03:48:11;102558.34;;;-1.17
75273;BMP280;63869;52.344;16.928;2022-12-18T03:50:56;102562.00;;;-1.13
75273;BMP280;63869;52.344;16.928;2022-12-18T03:56:08;102562.22;;;-1.05
75273;BMP280;63869;52.344;16.928;2022-12-18T03:58:35;102535.28;;;-1.21
75273;BMP280;63869;52.344;16.928;2022-12-18T04:01:05;102558.78;;;-1.00
75273;BMP280;63869;52.344;16.928;2022-12-18T04:03:35;102559.78;;;-0.96
75273;BMP280;63869;52.344;16.928;2022-12-18T04:06:02;102570.56;;;-0.93
75273;BMP280;63869;52.344;16.928;2022-12-18T04:08:28;102569.00;;;-0.94
75273;BMP280;63869;52.344;16.928;2022-12-18T04:10:54;102563.75;;;-0.94
75273;BMP280;63869;52.344;16.928;2022-12-18T04:13:38;102565.31;;;-0.93
75273;BMP280;63869;52.344;16.928;2022-12-18T04:16:04;102566.09;;;-0.92
75273;BMP280;63869;52.344;16.928;2022-12-18T04:18:30;102565.81;;;-0.96
75273;BMP280;63869;52.344;16.928;2022-12-18T04:20:55;102570.56;;;-0.93
75273;BMP280;63869;52.344;16.928;2022-12-18T04:23:21;102572.91;;;-0.91
75273;BMP280;63869;52.344;16.928;2022-12-18T04:25:47;102566.88;;;-0.97
75273;BMP280;63869;52.344;16.928;2022-12-18T04:28:12;102571.63;;;-0.99
75273;BMP280;63869;52.344;16.928;2022-12-18T04:30:38;102581.84;;;-0.97
75273;BMP280;63869;52.344;16.928;2022-12-18T04:33:03;102590.28;;;-1.00
75273;BMP280;63869;52.344;16.928;2022-12-18T04:35:28;102596.59;;;-1.01
75273;BMP280;63869;52.344;16.928;2022-12-18T04:37:54;102556.31;;;-1.26
75273;BMP280;63869;52.344;16.928;2022-12-18T04:40:19;102595.84;;;-1.07
75273;BMP280;63869;52.344;16.928;2022-12-18T04:42:44;102596.59;;;-1.01
75273;BMP280;63869;52.344;16.928;2022-12-18T04:45:10;102604.19;;;-1.00
75273;BMP280;63869;52.344;16.928;2022-12-18T04:47:35;102600.25;;;-1.02
75273;BMP280;63869;52.344;16.928;2022-12-18T04:50:00;102604.22;;;-1.05
75273;BMP280;63869;52.344;16.928;2022-12-18T04:52:26;102613.38;;;-1.02
75273;BMP280;63869;52.344;16.928;2022-12-18T04:54:51;102608.19;;;-1.07
75273;BMP280;63869;52.344;16.928;2022-12-18T04:57:16;102604.75;;;-1.08
75273;BMP280;63869;52.344;16.928;2022-12-18T04:59:43;102609.22;;;-1.08
75273;BMP280;63869;52.344;16.928;2022-12-18T05:02:08;102618.91;;;-1.04
75273;BMP280;63869;52.344;16.928;2022-12-18T05:04:33;102629.41;;;-1.04
75273;BMP280;63869;52.344;16.928;2022-12-18T05:06:59;102624.94;;;-1.03
75273;BMP280;63869;52.344;16.928;2022-12-18T05:09:24;102630.47;;;-1.05
75273;BMP280;63869;52.344;16.928;2022-12-18T05:11:49;102622.09;;;-1.12
75273;BMP280;63869;52.344;16.928;2022-12-18T05:14:15;102639.66;;;-1.07
75273;BMP280;63869;52.344;16.928;2022-12-18T05:16:40;102632.06;;;-1.14
75273;BMP280;63869;52.344;16.928;2022-12-18T05:19:05;102630.75;;;-1.11
75273;BMP280;63869;52.344;16.928;2022-12-18T05:21:30;102630.22;;;-1.13
75273;BMP280;63869;52.344;16.928;2022-12-18T05:23:56;102622.94;;;-1.22
75273;BMP280;63869;52.344;16.928;2022-12-18T05:26:21;102639.44;;;-1.16
75273;BMP280;63869;52.344;16.928;2022-12-18T05:28:46;102649.94;;;-1.16
75273;BMP280;63869;52.344;16.928;2022-12-18T05:31:12;102645.47;;;-1.15
75273;BMP280;63869;52.344;16.928;2022-12-18T05:33:37;102648.34;;;-1.17
75273;BMP280;63869;52.344;16.928;2022-12-18T05:36:08;102660.41;;;-1.16
75273;BMP280;63869;52.344;16.928;2022-12-18T05:38:35;102654.38;;;-1.16
75273;BMP280;63869;52.344;16.928;2022-12-18T05:41:01;102654.16;;;-1.20
75273;BMP280;63869;52.344;16.928;2022-12-18T05:43:27;102668.84;;;-1.19
75273;BMP280;63869;52.344;16.928;2022-12-18T05:45:53;102673.53;;;-1.16
75273;BMP280;63869;52.344;16.928;2022-12-18T05:48:19;102677.75;;;-1.15
75273;BMP280;63869;52.344;16.928;2022-12-18T05:50:46;102683.53;;;-1.18
75273;BMP280;63869;52.344;16.928;2022-12-18T05:53:12;102684.59;;;-1.19
75273;BMP280;63869;52.344;16.928;2022-12-18T05:55:39;102684.59;;;-1.24
75273;BMP280;63869;52.344;16.928;2022-12-18T05:58:06;102685.13;;;-1.27
75273;BMP280;63869;52.344;16.928;2022-12-18T06:00:34;102684.09;;;-1.31
75273;BMP280;63869;52.344;16.928;2022-12-18T06:03:00;102682.50;;;-1.42
75273;BMP280;63869;52.344;16.928;2022-12-18T06:05:25;102687.75;;;-1.42
75273;BMP280;63869;52.344;16.928;2022-12-18T06:07:51;102687.75;;;-1.48
75273;BMP280;63869;52.344;16.928;2022-12-18T06:10:16;102697.19;;;-1.46
75273;BMP280;63869;52.344;16.928;2022-12-18T06:12:42;102694.59;;;-1.52
75273;BMP280;63869;52.344;16.928;2022-12-18T06:15:07;102717.91;;;-1.45
75273;BMP280;63869;52.344;16.928;2022-12-18T06:17:33;102725.53;;;-1.49
75273;BMP280;63869;52.344;16.928;2022-12-18T06:19:59;102721.88;;;-1.53
75273;BMP280;63869;52.344;16.928;2022-12-18T06:22:24;102723.19;;;-1.55
75273;BMP280;63869;52.344;16.928;2022-12-18T06:24:50;102711.91;;;-1.61
75273;BMP280;63869;52.344;16.928;2022-12-18T06:27:16;102713.22;;;-1.58
75273;BMP280;63869;52.344;16.928;2022-12-18T06:29:41;102717.44;;;-1.57
75273;BMP280;63869;52.344;16.928;2022-12-18T06:32:07;102725.56;;;-1.54
75273;BMP280;63869;52.344;16.928;2022-12-18T06:34:33;102726.59;;;-1.55
75273;BMP280;63869;52.344;16.928;2022-12-18T06:36:58;102732.63;;;-1.54
75273;BMP280;63869;52.344;16.928;2022-12-18T06:39:24;102709.03;;;-1.69
75273;BMP280;63869;52.344;16.928;2022-12-18T06:41:51;102728.94;;;-1.58
75273;BMP280;63869;52.344;16.928;2022-12-18T06:44:17;102732.91;;;-1.56
75273;BMP280;63869;52.344;16.928;2022-12-18T06:46:42;102723.97;;;-1.80
75273;BMP280;63869;52.344;16.928;2022-12-18T06:49:07;102717.91;;;-2.16
75273;BMP280;63869;52.344;16.928;2022-12-18T06:51:34;102725.94;;;-2.38
75273;BMP280;63869;52.344;16.928;2022-12-18T06:53:59;102738.72;;;-2.57
75273;BMP280;63869;52.344;16.928;2022-12-18T06:56:24;102734.69;;;-2.75
75273;BMP280;63869;52.344;16.928;2022-12-18T06:58:50;102728.34;;;-2.89
75273;BMP280;63869;52.344;16.928;2022-12-18T07:01:15;102742.66;;;-3.02
75273;BMP280;63869;52.344;16.928;2022-12-18T07:03:41;102728.53;;;-3.43
75273;BMP280;63869;52.344;16.928;2022-12-18T07:06:16;102702.88;;;-3.78
75273;BMP280;63869;52.344;16.928;2022-12-18T07:08:43;102755.50;;;-3.64
75273;BMP280;63869;52.344;16.928;2022-12-18T07:11:09;102745.94;;;-3.81
75273;BMP280;63869;52.344;16.928;2022-12-18T07:13:34;102721.16;;;-4.05
75273;BMP280;63869;52.344;16.928;2022-12-18T07:16:11;102742.63;;;-3.98
75273;BMP280;63869;52.344;16.928;2022-12-18T07:18:37;102765.22;;;-3.87
75273;BMP280;63869;52.344;16.928;2022-12-18T07:21:04;102767.06;;;-3.87
75273;BMP280;63869;52.344;16.928;2022-12-18T07:23:29;102745.44;;;-4.04
75273;BMP280;63869;52.344;16.928;2022-12-18T07:25:55;102751.16;;;-4.07
75273;BMP280;63869;52.344;16.928;2022-12-18T07:28:20;102764.06;;;-3.96
75273;BMP280;63869;52.344;16.928;2022-12-18T07:30:45;102741.75;;;-4.08
75273;BMP280;63869;52.344;16.928;2022-12-18T07:33:11;102757.16;;;-4.07
75273;BMP280;63869;52.344;16.928;2022-12-18T07:35:36;102769.22;;;-4.01
75273;BMP280;63869;52.344;16.928;2022-12-18T07:38:01;102751.88;;;-4.12
75273;BMP280;63869;52.344;16.928;2022-12-18T07:40:26;102736.59;;;-4.25
75273;BMP280;63869;52.344;16.928;2022-12-18T07:42:52;102771.06;;;-4.01
75273;BMP280;63869;52.344;16.928;2022-12-18T07:45:17;102736.47;;;-4.35
75273;BMP280;63869;52.344;16.928;2022-12-18T07:47:42;102785.66;;;-4.05
75273;BMP280;63869;52.344;16.928;2022-12-18T07:50:08;102809.06;;;-3.94
75273;BMP280;63869;52.344;16.928;2022-12-18T07:52:33;102807.66;;;-3.96
75273;BMP280;63869;52.344;16.928;2022-12-18T07:54:58;102783.78;;;-4.10
75273;BMP280;63869;52.344;16.928;2022-12-18T07:57:23;102803.25;;;-3.96
75273;BMP280;63869;52.344;16.928;2022-12-18T07:59:49;102787.19;;;-4.09
75273;BMP280;63869;52.344;16.928;2022-12-18T08:02:14;102810.13;;;-3.90
75273;BMP280;63869;52.344;16.928;2022-12-18T08:04:39;102805.44;;;-3.88
75273;BMP280;63869;52.344;16.928;2022-12-18T08:07:05;102788.84;;;-3.98
75273;BMP280;63869;52.344;16.928;2022-12-18T08:09:30;102775.88;;;-4.15
75273;BMP280;63869;52.344;16.928;2022-12-18T08:11:55;102790.09;;;-4.06
75273;BMP280;63869;52.344;16.928;2022-12-18T08:14:21;102772.78;;;-4.12
75273;BMP280;63869;52.344;16.928;2022-12-18T08:16:46;102830.91;;;-3.78
75273;BMP280;63869;52.344;16.928;2022-12-18T08:19:11;102840.13;;;-3.70
75273;BMP280;63869;52.344;16.928;2022-12-18T08:21:37;102818.06;;;-3.79
75273;BMP280;63869;52.344;16.928;2022-12-18T08:24:02;102847.59;;;-3.57
75273;BMP280;63869;52.344;16.928;2022-12-18T08:26:30;102844.72;;;-3.56
75273;BMP280;63869;52.344;16.928;2022-12-18T08:28:56;102842.53;;;-3.42
75273;BMP280;63869;52.344;16.928;2022-12-18T09:58:20;102815.50;;;-1.73
75273;BMP280;63869;52.344;16.928;2022-12-18T10:00:48;102791.03;;;-1.94
75273;BMP280;63869;52.344;16.928;2022-12-18T10:03:16;102823.88;;;-1.76
75273;BMP280;63869;52.344;16.928;2022-12-18T10:08:31;102823.88;;;-1.66
75273;BMP280;63869;52.344;16.928;2022-12-18T10:13:58;102796.63;;;-1.65
75273;BMP280;63869;52.344;16.928;2022-12-18T10:16:53;102812.09;;;-1.43
75273;BMP280;63869;52.344;16.928;2022-12-18T10:19:25;102808.69;;;-1.49
75273;BMP280;63869;52.344;16.928;2022-12-18T10:27:18;102829.94;;;-1.45
75273;BMP280;63869;52.344;16.928;2022-12-18T10:29:44;102829.41;;;-1.42
75273;BMP280;63869;52.344;16.928;2022-12-18T10:32:19;102760.94;;;-1.87
75273;BMP280;63869;52.344;16.928;2022-12-18T10:34:50;102829.13;;;-1.46
75273;BMP280;63869;52.344;16.928;2022-12-18T10:37:21;102818.66;;;-1.56
75273;BMP280;63869;52.344;16.928;2022-12-18T10:42:34;102837.78;;;-1.66
75273;BMP280;63869;52.344;16.928;2022-12-18T10:45:16;102829.91;;;-1.61
75273;BMP280;63869;52.344;16.928;2022-12-18T10:47:44;102829.38;;;-1.63
75273;BMP280;63869;52.344;16.928;2022-12-18T10:50:26;102805.81;;;-1.73
75273;BMP280;63869;52.344;16.928;2022-12-18T10:52:57;102824.94;;;-1.67
75273;BMP280;63869;52.344;16.928;2022-12-18T10:55:30;102825.97;;;-1.63
75273;BMP280;63869;52.344;16.928;2022-12-18T11:01:03;102834.13;;;-1.44
75273;BMP280;63869;52.344;16.928;2022-12-18T11:08:29;102804.78;;;-1.26
75273;BMP280;63869;52.344;16.928;2022-12-18T11:10:54;102794.28;;;-1.21
75273;BMP280;63869;52.344;16.928;2022-12-18T11:13:22;102770.13;;;-1.28
75273;BMP280;63869;52.344;16.928;2022-12-18T11:15:48;102807.59;;;-0.97
75273;BMP280;63869;52.344;16.928;2022-12-18T11:18:17;102779.56;;;-1.17
75273;BMP280;63869;52.344;16.928;2022-12-18T11:20:50;102815.78;;;-1.04
75273;BMP280;63869;52.344;16.928;2022-12-18T11:23:18;102794.78;;;-1.29
75273;BMP280;63869;52.344;16.928;2022-12-18T11:25:52;102811.06;;;-1.27
75273;BMP280;63869;52.344;16.928;2022-12-18T11:28:38;102820.53;;;-1.21
75273;BMP280;63869;52.344;16.928;2022-12-18T11:31:15;102816.31;;;-1.27
75273;BMP280;63869;52.344;16.928;2022-12-18T11:33:46;102777.47;;;-1.51
75273;BMP280;63869;52.344;16.928;2022-12-18T11:36:12;102741.53;;;-1.65
75273;BMP280;63869;52.344;16.928;2022-12-18T11:38:40;102791.91;;;-1.23
75273;BMP280;63869;52.344;16.928;2022-12-18T11:43:52;102806.88;;;-1.23
75273;BMP280;63869;52.344;16.928;2022-12-18T11:46:30;102808.44;;;-1.22
75273;BMP280;63869;52.344;16.928;2022-12-18T11:49:10;102793.75;;;-1.28
75273;BMP280;63869;52.344;16.928;2022-12-18T11:51:59;102781.94;;;-1.46
75273;BMP280;63869;52.344;16.928;2022-12-18T11:54:25;102795.06;;;-1.51
75273;BMP280;63869;52.344;16.928;2022-12-18T11:56:55;102796.38;;;-1.54
75273;BMP280;63869;52.344;16.928;2022-12-18T12:01:55;102807.38;;;-1.36
75273;BMP280;63869;52.344;16.928;2022-12-18T12:04:47;102816.06;;;-1.21
75273;BMP280;63869;52.344;16.928;2022-12-18T12:07:34;102818.16;;;-1.07
75273;BMP280;63869;52.344;16.928;2022-12-18T12:21:34;102850.69;;;-1.18
75273;BMP280;63869;52.344;16.928;2022-12-18T12:24:12;102841.00;;;-1.23
75273;BMP280;63869;52.344;16.928;2022-12-18T12:29:56;102805.56;;;-1.41
75273;BMP280;63869;52.344;16.928;2022-12-18T12:38:15;102838.91;;;-1.26
75273;BMP280;63869;52.344;16.928;2022-12-18T12:40:48;102841.78;;;-1.33
75273;BMP280;63869;52.344;16.928;2022-12-18T12:46:08;102845.97;;;-1.32
75273;BMP280;63869;52.344;16.928;2022-12-18T12:48:46;102844.94;;;-1.26
75273;BMP280;63869;52.344;16.928;2022-12-18T12:51:17;102828.38;;;-1.21
75273;BMP280;63869;52.344;16.928;2022-12-18T12:53:43;102833.63;;;-1.16
75273;BMP280;63869;52.344;16.928;2022-12-18T12:56:11;102833.09;;;-1.28
75273;BMP280;63869;52.344;16.928;2022-12-18T13:01:49;102833.34;;;-1.40
75273;BMP280;63869;52.344;16.928;2022-12-18T13:04:36;102805.28;;;-1.55
75273;BMP280;63869;52.344;16.928;2022-12-18T13:07:15;102814.97;;;-1.45
75273;BMP280;63869;52.344;16.928;2022-12-18T13:20:41;102824.94;;;-1.62
75273;BMP280;63869;52.344;16.928;2022-12-18T13:30:59;102826.94;;;-2.00
75273;BMP280;63869;52.344;16.928;2022-12-18T13:36:01;102832.41;;;-2.12
75273;BMP280;63869;52.344;16.928;2022-12-18T13:38:37;102829.94;;;-2.33
75273;BMP280;63869;52.344;16.928;2022-12-18T13:41:22;102832.00;;;-2.41
75273;BMP280;63869;52.344;16.928;2022-12-18T13:43:49;102825.72;;;-2.40
75273;BMP280;63869;52.344;16.928;2022-12-18T13:51:35;102830.22;;;-2.35
75273;BMP280;63869;52.344;16.928;2022-12-18T13:56:56;102802.53;;;-2.68
75273;BMP280;63869;52.344;16.928;2022-12-18T13:59:24;102839.84;;;-2.51
75273;BMP280;63869;52.344;16.928;2022-12-18T14:04:38;102842.59;;;-2.68
75273;BMP280;63869;52.344;16.928;2022-12-18T14:07:04;102836.28;;;-2.72
75273;BMP280;63869;52.344;16.928;2022-12-18T14:09:35;102783.66;;;-3.12
75273;BMP280;63869;52.344;16.928;2022-12-18T14:12:01;102822.47;;;-2.99
75273;BMP280;63869;52.344;16.928;2022-12-18T14:14:56;102842.19;;;-2.91
75273;BMP280;63869;52.344;16.928;2022-12-18T14:17:22;102811.69;;;-3.08
75273;BMP280;63869;52.344;16.928;2022-12-18T14:19:50;102818.25;;;-3.00
75273;BMP280;63869;52.344;16.928;2022-12-18T14:22:21;102818.88;;;-2.93
75273;BMP280;63869;52.344;16.928;2022-12-18T14:25:13;102851.94;;;-2.77
75273;BMP280;63869;52.344;16.928;2022-12-18T14:33:01;102858.34;;;-2.62
75273;BMP280;63869;52.344;16.928;2022-12-18T14:35:27;102829.44;;;-2.78
75273;BMP280;63869;52.344;16.928;2022-12-18T14:37:52;102866.22;;;-2.57
75273;BMP280;63869;52.344;16.928;2022-12-18T14:40:17;102847.28;;;-2.70
75273;BMP280;63869;52.344;16.928;2022-12-18T14:42:43;102873.28;;;-2.63
75273;BMP280;63869;52.344;16.928;2022-12-18T14:45:38;102874.63;;;-2.55
75273;BMP280;63869;52.344;16.928;2022-12-18T14:48:19;102876.69;;;-2.57
75273;BMP280;63869;52.344;16.928;2022-12-18T14:50:48;102875.72;;;-2.51
75273;BMP280;63869;52.344;16.928;2022-12-18T14:53:24;102845.16;;;-2.73
75273;BMP280;63869;52.344;16.928;2022-12-18T14:55:51;102868.56;;;-2.61
75273;BMP280;63869;52.344;16.928;2022-12-18T14:58:17;102882.78;;;-2.47
75273;BMP280;63869;52.344;16.928;2022-12-18T15:00:43;102876.75;;;-2.52
75273;BMP280;63869;52.344;16.928;2022-12-18T15:03:09;102840.69;;;-2.77
75273;BMP280;63869;52.344;16.928;2022-12-18T15:05:35;102856.66;;;-2.79
75273;BMP280;63869;52.344;16.928;2022-12-18T15:08:01;102809.53;;;-3.16
75273;BMP280;63869;52.344;16.928;2022-12-18T15:10:32;102868.97;;;-2.79
75273;BMP280;63869;52.344;16.928;2022-12-18T15:18:03;102864.31;;;-2.30
75273;BMP280;63869;52.344;16.928;2022-12-18T15:20:38;102825.47;;;-2.38
75273;BMP280;63869;52.344;16.928;2022-12-18T15:23:12;102837.16;;;-1.98
75273;BMP280;63869;52.344;16.928;2022-12-18T15:25:38;102850.88;;;-1.76
75273;BMP280;63869;52.344;16.928;2022-12-18T15:28:12;102827.81;;;-1.64
75273;BMP280;63869;52.344;16.928;2022-12-18T15:33:34;102830.50;;;-1.33
75273;BMP280;63869;52.344;16.928;2022-12-18T15:36:02;102814.22;;;-1.30
75273;BMP280;63869;52.344;16.928;2022-12-18T15:38:28;102844.38;;;-0.97
75273;BMP280;63869;52.344;16.928;2022-12-18T15:40:53;102823.91;;;-1.05
75273;BMP280;63869;52.344;16.928;2022-12-18T15:43:23;102846.69;;;-0.80
75273;BMP280;63869;52.344;16.928;2022-12-18T15:46:06;102837.78;;;-0.74
75273;BMP280;63869;52.344;16.928;2022-12-18T15:48:39;102827.50;;;-0.71
75273;BMP280;63869;52.344;16.928;2022-12-18T15:51:07;102807.81;;;-0.68
75273;BMP280;63869;52.344;16.928;2022-12-18T15:53:35;102810.16;;;-0.62
75273;BMP280;63869;52.344;16.928;2022-12-18T15:56:01;102782.88;;;-0.71
75273;BMP280;63869;52.344;16.928;2022-12-18T15:58:45;102811.41;;;-0.49
75273;BMP280;63869;52.344;16.928;2022-12-18T16:01:10;102819.78;;;-0.37
75273;BMP280;63869;52.344;16.928;2022-12-18T16:03:36;102791.72;;;-0.46
75273;BMP280;63869;52.344;16.928;2022-12-18T16:06:02;102809.25;;;-0.26
75273;BMP280;63869;52.344;16.928;2022-12-18T16:08:28;102809.50;;;-0.23
75273;BMP280;63869;52.344;16.928;2022-12-18T16:10:55;102791.41;;;-0.29
75273;BMP280;63869;52.344;16.928;2022-12-18T16:13:21;102803.94;;;-0.16
75273;BMP280;63869;52.344;16.928;2022-12-18T16:15:46;102804.19;;;-0.13
75273;BMP280;63869;52.344;16.928;2022-12-18T16:18:12;102803.66;;;-0.10
75273;BMP280;63869;52.344;16.928;2022-12-18T16:20:37;102805.50;;;-0.10
75273;BMP280;63869;52.344;16.928;2022-12-18T16:23:03;102803.88;;;-0.06
75273;BMP280;63869;52.344;16.928;2022-12-18T16:25:28;102805.19;;;-0.04
75273;BMP280;63869;52.344;16.928;2022-12-18T16:27:55;102806.47;;;-0.01
75273;BMP280;63869;52.344;16.928;2022-12-18T16:30:26;102778.69;;;-0.17
75273;BMP280;63869;52.344;16.928;2022-12-18T16:32:53;102816.97;;;0.04
75273;BMP280;63869;52.344;16.928;2022-12-18T16:35:19;102826.72;;;0.04
75273;BMP280;63869;52.344;16.928;2022-12-18T16:37:44;102760.38;;;-0.38
75273;BMP280;63869;52.344;16.928;2022-12-18T16:40:12;102841.13;;;0.11
75273;BMP280;63869;52.344;16.928;2022-12-18T16:42:39;102854.81;;;0.08
75273;BMP280;63869;52.344;16.928;2022-12-18T16:45:06;102840.84;;;0.13
75273;BMP280;63869;52.344;16.928;2022-12-18T16:47:32;102839.00;;;0.13
75273;BMP280;63869;52.344;16.928;2022-12-18T16:49:57;102835.84;;;0.16
75273;BMP280;63869;52.344;16.928;2022-12-18T16:52:23;102838.97;;;0.18
75273;BMP280;63869;52.344;16.928;2022-12-18T16:54:48;102823.78;;;0.10
75273;BMP280;63869;52.344;16.928;2022-12-18T16:57:15;102775.31;;;-0.23
75273;BMP280;63869;52.344;16.928;2022-12-18T16:59:41;102817.75;;;0.05
75273;BMP280;63869;52.344;16.928;2022-12-18T17:02:17;102839.50;;;0.20
75273;BMP280;63869;52.344;16.928;2022-12-18T17:04:43;102829.25;;;0.14
75273;BMP280;63869;52.344;16.928;2022-12-18T17:07:09;102854.72;;;0.23
75273;BMP280;63869;52.344;16.928;2022-12-18T17:09:35;102835.31;;;0.14
75273;BMP280;63869;52.344;16.928;2022-12-18T17:12:00;102836.34;;;0.18
75273;BMP280;63869;52.344;16.928;2022-12-18T17:14:26;102814.34;;;0.04